sensor_id;sensor_type;location;lat;lon;timestamp;temperature;humidity
54485;DHT22;45006;56.958;24.166;2023-07-31T00:02:05;24.70;83.90
54485;DHT22;45006;56.958;24.166;2023-07-31T00:04:33;24.70;83.90
54485;DHT22;45006;56.958;24.166;2023-07-31T00:07:00;24.70;83.80
54485;DHT22;45006;56.958;24.166;2023-07-31T00:09:27;24.70;83.70
54485;DHT22;45006;56.958;24.166;2023-07-31T00:11:54;24.70;83.80
54485;DHT22;45006;56.958;24.166;2023-07-31T00:14:22;24.70;83.80
54485;DHT22;45006;56.958;24.166;2023-07-31T00:16:50;24.70;83.80
54485;DHT22;45006;56.958;24.166;2023-07-31T00:19:18;24.70;83.70
54485;DHT22;45006;56.958;24.166;2023-07-31T00:21:45;24.70;83.60
54485;DHT22;45006;56.958;24.166;2023-07-31T00:24:12;24.70;83.50
54485;DHT22;45006;56.958;24.166;2023-07-31T00:26:39;24.70;83.50
54485;DHT22;45006;56.958;24.166;2023-07-31T00:29:06;24.70;83.50
54485;DHT22;45006;56.958;24.166;2023-07-31T00:31:33;24.70;83.50
54485;DHT22;45006;56.958;24.166;2023-07-31T00:34:00;24.70;83.50
54485;DHT22;45006;56.958;24.166;2023-07-31T00:36:27;24.70;83.60
54485;DHT22;45006;56.958;24.166;2023-07-31T00:38:54;24.80;83.60
54485;DHT22;45006;56.958;24.166;2023-07-31T00:41:21;24.70;83.70
54485;DHT22;45006;56.958;24.166;2023-07-31T00:43:48;24.70;83.70
54485;DHT22;45006;56.958;24.166;2023-07-31T00:46:15;24.70;83.80
54485;DHT22;45006;56.958;24.166;2023-07-31T00:48:43;24.70;83.90
54485;DHT22;45006;56.958;24.166;2023-07-31T00:51:10;24.70;84.20
54485;DHT22;45006;56.958;24.166;2023-07-31T00:53:37;24.70;84.20
54485;DHT22;45006;56.958;24.166;2023-07-31T00:56:07;24.70;84.20
54485;DHT22;45006;56.958;24.166;2023-07-31T00:58:34;24.70;84.20
54485;DHT22;45006;56.958;24.166;2023-07-31T01:01:01;24.70;84.10
54485;DHT22;45006;56.958;24.166;2023-07-31T01:03:29;24.70;84.20
54485;DHT22;45006;56.958;24.166;2023-07-31T01:06:21;24.70;84.20
54485;DHT22;45006;56.958;24.166;2023-07-31T01:11:28;24.70;84.00
54485;DHT22;45006;56.958;24.166;2023-07-31T01:13:57;24.70;84.00
54485;DHT22;45006;56.958;24.166;2023-07-31T01:16:25;24.70;84.10
54485;DHT22;45006;56.958;24.166;2023-07-31T01:18:53;24.70;84.00
54485;DHT22;45006;56.958;24.166;2023-07-31T01:24:21;24.70;84.20
54485;DHT22;45006;56.958;24.166;2023-07-31T01:27:06;24.70;84.30
54485;DHT22;45006;56.958;24.166;2023-07-31T01:32:09;24.70;84.30
54485;DHT22;45006;56.958;24.166;2023-07-31T01:34:37;24.70;84.40
54485;DHT22;45006;56.958;24.166;2023-07-31T01:37:05;24.70;84.50
54485;DHT22;45006;56.958;24.166;2023-07-31T01:39:32;24.70;84.50
54485;DHT22;45006;56.958;24.166;2023-07-31T01:41:59;24.70;84.60
54485;DHT22;45006;56.958;24.166;2023-07-31T01:44:26;24.70;84.70
54485;DHT22;45006;56.958;24.166;2023-07-31T01:46:53;24.70;84.80
54485;DHT22;45006;56.958;24.166;2023-07-31T01:49:20;24.70;84.90
54485;DHT22;45006;56.958;24.166;2023-07-31T01:51:47;24.70;84.90
54485;DHT22;45006;56.958;24.166;2023-07-31T01:54:14;24.70;84.80
54485;DHT22;45006;56.958;24.166;2023-07-31T01:56:41;24.60;84.90
54485;DHT22;45006;56.958;24.166;2023-07-31T01:59:09;24.60;85.00
54485;DHT22;45006;56.958;24.166;2023-07-31T02:01:36;24.60;85.00
54485;DHT22;45006;56.958;24.166;2023-07-31T02:04:03;24.60;84.90
54485;DHT22;45006;56.958;24.166;2023-07-31T02:06:31;24.60;85.10
54485;DHT22;45006;56.958;24.166;2023-07-31T02:08:58;24.70;85.20
54485;DHT22;45006;56.958;24.166;2023-07-31T02:11:25;24.60;85.20
54485;DHT22;45006;56.958;24.166;2023-07-31T02:13:52;24.70;85.10
54485;DHT22;45006;56.958;24.166;2023-07-31T02:16:19;24.60;85.00
54485;DHT22;45006;56.958;24.166;2023-07-31T02:18:46;24.70;85.00
54485;DHT22;45006;56.958;24.166;2023-07-31T02:21:13;24.70;84.90
54485;DHT22;45006;56.958;24.166;2023-07-31T02:23:40;24.70;84.80
54485;DHT22;45006;56.958;24.166;2023-07-31T02:26:07;24.60;84.70
54485;DHT22;45006;56.958;24.166;2023-07-31T02:28:34;24.70;84.80
54485;DHT22;45006;56.958;24.166;2023-07-31T02:31:02;24.70;84.80
54485;DHT22;45006;56.958;24.166;2023-07-31T02:33:29;24.70;84.60
54485;DHT22;45006;56.958;24.166;2023-07-31T02:35:56;24.60;84.40
54485;DHT22;45006;56.958;24.166;2023-07-31T02:38:23;24.60;84.70
54485;DHT22;45006;56.958;24.166;2023-07-31T02:40:50;24.60;84.60
54485;DHT22;45006;56.958;24.166;2023-07-31T02:43:17;24.70;84.40
54485;DHT22;45006;56.958;24.166;2023-07-31T02:45:44;24.70;84.20
54485;DHT22;45006;56.958;24.166;2023-07-31T02:48:11;24.70;84.30
54485;DHT22;45006;56.958;24.166;2023-07-31T02:50:38;24.70;84.30
54485;DHT22;45006;56.958;24.166;2023-07-31T02:53:07;24.70;84.30
54485;DHT22;45006;56.958;24.166;2023-07-31T02:55:34;24.70;84.30
54485;DHT22;45006;56.958;24.166;2023-07-31T02:58:01;24.70;84.20
54485;DHT22;45006;56.958;24.166;2023-07-31T03:00:28;24.70;84.00
54485;DHT22;45006;56.958;24.166;2023-07-31T03:02:55;24.80;84.00
54485;DHT22;45006;56.958;24.166;2023-07-31T03:05:22;24.80;84.00
54485;DHT22;45006;56.958;24.166;2023-07-31T03:07:49;24.70;84.00
54485;DHT22;45006;56.958;24.166;2023-07-31T03:10:16;24.70;84.20
54485;DHT22;45006;56.958;24.166;2023-07-31T03:12:46;24.70;84.70
54485;DHT22;45006;56.958;24.166;2023-07-31T03:15:14;24.70;84.40
54485;DHT22;45006;56.958;24.166;2023-07-31T03:17:41;24.70;84.80
54485;DHT22;45006;56.958;24.166;2023-07-31T03:20:08;24.70;84.80
54485;DHT22;45006;56.958;24.166;2023-07-31T03:22:35;24.70;84.70
54485;DHT22;45006;56.958;24.166;2023-07-31T03:25:03;24.70;84.70
54485;DHT22;45006;56.958;24.166;2023-07-31T03:27:30;24.70;84.60
54485;DHT22;45006;56.958;24.166;2023-07-31T03:29:57;24.70;84.40
54485;DHT22;45006;56.958;24.166;2023-07-31T03:32:24;24.70;84.30
54485;DHT22;45006;56.958;24.166;2023-07-31T03:34:51;24.70;84.40
54485;DHT22;45006;56.958;24.166;2023-07-31T03:37:18;24.70;84.20
54485;DHT22;45006;56.958;24.166;2023-07-31T03:39:45;24.80;84.00
54485;DHT22;45006;56.958;24.166;2023-07-31T03:42:12;24.70;84.00
54485;DHT22;45006;56.958;24.166;2023-07-31T03:44:39;24.70;84.00
54485;DHT22;45006;56.958;24.166;2023-07-31T03:47:06;24.70;84.10
54485;DHT22;45006;56.958;24.166;2023-07-31T03:49:33;24.70;84.10
54485;DHT22;45006;56.958;24.166;2023-07-31T03:52:00;24.60;84.20
54485;DHT22;45006;56.958;24.166;2023-07-31T03:54:27;24.70;84.40
54485;DHT22;45006;56.958;24.166;2023-07-31T03:56:54;24.70;84.40
54485;DHT22;45006;56.958;24.166;2023-07-31T03:59:22;24.60;84.20
54485;DHT22;45006;56.958;24.166;2023-07-31T04:01:49;24.70;84.20
54485;DHT22;45006;56.958;24.166;2023-07-31T04:04:16;24.70;84.20
54485;DHT22;45006;56.958;24.166;2023-07-31T04:06:43;24.70;84.00
54485;DHT22;45006;56.958;24.166;2023-07-31T04:09:09;24.70;83.80
54485;DHT22;45006;56.958;24.166;2023-07-31T04:11:36;24.70;83.70
54485;DHT22;45006;56.958;24.166;2023-07-31T04:14:03;24.70;83.60
54485;DHT22;45006;56.958;24.166;2023-07-31T04:16:30;24.80;83.60
54485;DHT22;45006;56.958;24.166;2023-07-31T04:18:57;24.70;83.50
54485;DHT22;45006;56.958;24.166;2023-07-31T04:21:24;24.80;83.70
54485;DHT22;45006;56.958;24.166;2023-07-31T04:23:51;24.80;83.60
54485;DHT22;45006;56.958;24.166;2023-07-31T04:26:22;24.70;83.50
54485;DHT22;45006;56.958;24.166;2023-07-31T04:28:49;24.80;83.50
54485;DHT22;45006;56.958;24.166;2023-07-31T04:31:16;24.80;83.40
54485;DHT22;45006;56.958;24.166;2023-07-31T04:33:43;24.80;83.00
54485;DHT22;45006;56.958;24.166;2023-07-31T04:36:10;24.80;83.30
54485;DHT22;45006;56.958;24.166;2023-07-31T04:38:37;24.80;83.30
54485;DHT22;45006;56.958;24.166;2023-07-31T04:41:04;24.80;83.20
54485;DHT22;45006;56.958;24.166;2023-07-31T04:43:32;24.80;83.20
54485;DHT22;45006;56.958;24.166;2023-07-31T04:46:00;24.80;83.30
54485;DHT22;45006;56.958;24.166;2023-07-31T04:48:27;24.80;83.20
54485;DHT22;45006;56.958;24.166;2023-07-31T04:50:54;24.80;83.10
54485;DHT22;45006;56.958;24.166;2023-07-31T04:53:21;24.80;83.10
54485;DHT22;45006;56.958;24.166;2023-07-31T04:55:48;24.80;83.00
54485;DHT22;45006;56.958;24.166;2023-07-31T04:58:15;24.90;82.90
54485;DHT22;45006;56.958;24.166;2023-07-31T05:00:42;24.90;82.60
54485;DHT22;45006;56.958;24.166;2023-07-31T05:03:09;24.90;82.50
54485;DHT22;45006;56.958;24.166;2023-07-31T05:05:38;25.00;82.70
54485;DHT22;45006;56.958;24.166;2023-07-31T05:08:04;25.00;82.80
54485;DHT22;45006;56.958;24.166;2023-07-31T05:10:31;24.90;83.20
54485;DHT22;45006;56.958;24.166;2023-07-31T05:12:58;24.80;83.40
54485;DHT22;45006;56.958;24.166;2023-07-31T05:15:26;24.80;83.80
54485;DHT22;45006;56.958;24.166;2023-07-31T05:17:53;24.80;83.90
54485;DHT22;45006;56.958;24.166;2023-07-31T05:20:20;24.70;84.00
54485;DHT22;45006;56.958;24.166;2023-07-31T05:22:50;24.70;84.30
54485;DHT22;45006;56.958;24.166;2023-07-31T05:25:17;24.70;84.40
54485;DHT22;45006;56.958;24.166;2023-07-31T05:27:44;24.70;84.70
54485;DHT22;45006;56.958;24.166;2023-07-31T05:30:13;24.70;84.70
54485;DHT22;45006;56.958;24.166;2023-07-31T05:32:40;24.70;84.90
54485;DHT22;45006;56.958;24.166;2023-07-31T05:35:07;24.70;84.90
54485;DHT22;45006;56.958;24.166;2023-07-31T05:37:34;24.70;84.90
54485;DHT22;45006;56.958;24.166;2023-07-31T05:40:01;24.70;85.10
54485;DHT22;45006;56.958;24.166;2023-07-31T05:42:28;24.70;85.20
54485;DHT22;45006;56.958;24.166;2023-07-31T05:44:55;24.70;85.30
54485;DHT22;45006;56.958;24.166;2023-07-31T05:47:22;24.70;85.00
54485;DHT22;45006;56.958;24.166;2023-07-31T05:49:49;24.70;84.90
54485;DHT22;45006;56.958;24.166;2023-07-31T05:52:18;24.70;85.00
54485;DHT22;45006;56.958;24.166;2023-07-31T05:54:47;24.80;84.90
54485;DHT22;45006;56.958;24.166;2023-07-31T05:57:14;24.80;84.80
54485;DHT22;45006;56.958;24.166;2023-07-31T05:59:40;24.90;84.80
54485;DHT22;45006;56.958;24.166;2023-07-31T06:02:08;25.00;84.90
54485;DHT22;45006;56.958;24.166;2023-07-31T06:04:35;25.00;84.60
54485;DHT22;45006;56.958;24.166;2023-07-31T06:07:02;25.00;84.40
54485;DHT22;45006;56.958;24.166;2023-07-31T06:09:30;25.20;84.60
54485;DHT22;45006;56.958;24.166;2023-07-31T06:11:57;25.10;84.30
54485;DHT22;45006;56.958;24.166;2023-07-31T06:14:25;25.20;84.30
54485;DHT22;45006;56.958;24.166;2023-07-31T06:16:52;25.10;84.20
54485;DHT22;45006;56.958;24.166;2023-07-31T06:19:18;25.20;84.20
54485;DHT22;45006;56.958;24.166;2023-07-31T06:21:48;25.20;84.00
54485;DHT22;45006;56.958;24.166;2023-07-31T06:24:15;25.20;84.10
54485;DHT22;45006;56.958;24.166;2023-07-31T06:26:45;25.20;84.10
54485;DHT22;45006;56.958;24.166;2023-07-31T06:29:12;25.30;84.20
54485;DHT22;45006;56.958;24.166;2023-07-31T06:31:40;25.40;84.20
54485;DHT22;45006;56.958;24.166;2023-07-31T06:34:08;25.40;84.10
54485;DHT22;45006;56.958;24.166;2023-07-31T06:36:36;25.30;83.90
54485;DHT22;45006;56.958;24.166;2023-07-31T06:39:03;25.30;84.10
54485;DHT22;45006;56.958;24.166;2023-07-31T06:41:30;25.30;84.00
54485;DHT22;45006;56.958;24.166;2023-07-31T06:43:57;25.30;84.20
54485;DHT22;45006;56.958;24.166;2023-07-31T06:46:24;25.30;84.30
54485;DHT22;45006;56.958;24.166;2023-07-31T06:48:51;25.30;84.40
54485;DHT22;45006;56.958;24.166;2023-07-31T06:51:18;25.30;84.50
54485;DHT22;45006;56.958;24.166;2023-07-31T06:53:45;25.30;84.50
54485;DHT22;45006;56.958;24.166;2023-07-31T06:56:12;25.30;84.80
54485;DHT22;45006;56.958;24.166;2023-07-31T06:58:39;25.30;84.60
54485;DHT22;45006;56.958;24.166;2023-07-31T07:01:06;25.30;84.80
54485;DHT22;45006;56.958;24.166;2023-07-31T07:03:33;25.20;84.70
54485;DHT22;45006;56.958;24.166;2023-07-31T07:06:02;25.20;84.90
54485;DHT22;45006;56.958;24.166;2023-07-31T07:08:29;25.20;84.60
54485;DHT22;45006;56.958;24.166;2023-07-31T07:10:56;25.20;84.90
54485;DHT22;45006;56.958;24.166;2023-07-31T07:13:23;25.20;85.20
54485;DHT22;45006;56.958;24.166;2023-07-31T07:15:50;25.20;85.50
54485;DHT22;45006;56.958;24.166;2023-07-31T07:18:18;25.30;85.50
54485;DHT22;45006;56.958;24.166;2023-07-31T07:20:53;25.30;85.20
54485;DHT22;45006;56.958;24.166;2023-07-31T07:23:20;25.30;81.90
54485;DHT22;45006;56.958;24.166;2023-07-31T07:25:47;25.20;79.20
54485;DHT22;45006;56.958;24.166;2023-07-31T07:28:14;25.10;79.00
54485;DHT22;45006;56.958;24.166;2023-07-31T07:30:41;25.00;79.30
54485;DHT22;45006;56.958;24.166;2023-07-31T07:33:08;25.00;79.70
54485;DHT22;45006;56.958;24.166;2023-07-31T07:35:36;25.00;80.10
54485;DHT22;45006;56.958;24.166;2023-07-31T07:38:03;25.00;80.30
54485;DHT22;45006;56.958;24.166;2023-07-31T07:40:30;25.00;80.30
54485;DHT22;45006;56.958;24.166;2023-07-31T07:42:57;25.00;80.50
54485;DHT22;45006;56.958;24.166;2023-07-31T07:45:24;25.00;80.50
54485;DHT22;45006;56.958;24.166;2023-07-31T07:47:51;25.10;80.80
54485;DHT22;45006;56.958;24.166;2023-07-31T07:50:18;25.00;80.40
54485;DHT22;45006;56.958;24.166;2023-07-31T07:52:46;25.10;80.40
54485;DHT22;45006;56.958;24.166;2023-07-31T07:55:12;25.00;80.50
54485;DHT22;45006;56.958;24.166;2023-07-31T07:57:39;25.10;80.50
54485;DHT22;45006;56.958;24.166;2023-07-31T08:00:07;25.00;80.40
54485;DHT22;45006;56.958;24.166;2023-07-31T08:02:34;25.00;80.50
54485;DHT22;45006;56.958;24.166;2023-07-31T08:05:01;25.00;80.70
54485;DHT22;45006;56.958;24.166;2023-07-31T08:07:29;25.00;80.80
54485;DHT22;45006;56.958;24.166;2023-07-31T08:09:56;25.00;80.80
54485;DHT22;45006;56.958;24.166;2023-07-31T08:12:23;25.00;80.80
54485;DHT22;45006;56.958;24.166;2023-07-31T08:14:50;25.10;80.90
54485;DHT22;45006;56.958;24.166;2023-07-31T08:17:18;25.10;80.70
54485;DHT22;45006;56.958;24.166;2023-07-31T08:19:45;25.00;80.70
54485;DHT22;45006;56.958;24.166;2023-07-31T08:22:13;25.10;80.70
54485;DHT22;45006;56.958;24.166;2023-07-31T08:24:42;25.00;80.80
54485;DHT22;45006;56.958;24.166;2023-07-31T08:27:09;25.00;80.80
54485;DHT22;45006;56.958;24.166;2023-07-31T08:29:36;25.00;80.70
54485;DHT22;45006;56.958;24.166;2023-07-31T08:32:04;25.00;81.00
54485;DHT22;45006;56.958;24.166;2023-07-31T08:34:31;25.00;80.90
54485;DHT22;45006;56.958;24.166;2023-07-31T08:36:58;25.00;80.70
54485;DHT22;45006;56.958;24.166;2023-07-31T08:39:25;25.00;81.30
54485;DHT22;45006;56.958;24.166;2023-07-31T08:41:58;25.00;80.70
54485;DHT22;45006;56.958;24.166;2023-07-31T08:44:25;25.00;80.60
54485;DHT22;45006;56.958;24.166;2023-07-31T08:46:53;25.00;80.60
54485;DHT22;45006;56.958;24.166;2023-07-31T08:49:22;25.00;80.60
54485;DHT22;45006;56.958;24.166;2023-07-31T08:51:50;25.00;80.60
54485;DHT22;45006;56.958;24.166;2023-07-31T08:54:17;25.00;80.60
54485;DHT22;45006;56.958;24.166;2023-07-31T08:56:44;25.00;80.50
54485;DHT22;45006;56.958;24.166;2023-07-31T08:59:14;25.00;80.60
54485;DHT22;45006;56.958;24.166;2023-07-31T09:01:49;25.00;80.70
54485;DHT22;45006;56.958;24.166;2023-07-31T09:04:18;25.00;80.50
54485;DHT22;45006;56.958;24.166;2023-07-31T09:06:47;25.00;80.30
54485;DHT22;45006;56.958;24.166;2023-07-31T09:09:15;25.00;80.40
54485;DHT22;45006;56.958;24.166;2023-07-31T09:11:42;24.90;80.50
54485;DHT22;45006;56.958;24.166;2023-07-31T09:14:10;24.90;80.60
54485;DHT22;45006;56.958;24.166;2023-07-31T09:16:57;24.90;80.70
54485;DHT22;45006;56.958;24.166;2023-07-31T09:19:27;24.90;80.80
54485;DHT22;45006;56.958;24.166;2023-07-31T09:21:54;24.90;80.80
54485;DHT22;45006;56.958;24.166;2023-07-31T09:24:29;24.90;80.80
54485;DHT22;45006;56.958;24.166;2023-07-31T09:26:57;24.90;80.80
54485;DHT22;45006;56.958;24.166;2023-07-31T09:29:29;24.90;80.80
54485;DHT22;45006;56.958;24.166;2023-07-31T09:31:56;24.90;80.80
54485;DHT22;45006;56.958;24.166;2023-07-31T09:34:38;24.90;80.80
54485;DHT22;45006;56.958;24.166;2023-07-31T09:37:06;24.80;80.90
54485;DHT22;45006;56.958;24.166;2023-07-31T09:39:45;24.80;80.80
54485;DHT22;45006;56.958;24.166;2023-07-31T09:42:12;24.80;80.80
54485;DHT22;45006;56.958;24.166;2023-07-31T09:44:40;24.80;80.90
54485;DHT22;45006;56.958;24.166;2023-07-31T09:47:22;24.80;80.80
54485;DHT22;45006;56.958;24.166;2023-07-31T09:49:52;24.80;80.80
54485;DHT22;45006;56.958;24.166;2023-07-31T09:52:19;24.80;80.90
54485;DHT22;45006;56.958;24.166;2023-07-31T09:54:46;24.80;80.90
54485;DHT22;45006;56.958;24.166;2023-07-31T09:57:15;24.80;80.90
54485;DHT22;45006;56.958;24.166;2023-07-31T09:59:45;24.90;80.90
54485;DHT22;45006;56.958;24.166;2023-07-31T10:02:18;24.80;81.00
54485;DHT22;45006;56.958;24.166;2023-07-31T10:04:50;24.80;80.90
54485;DHT22;45006;56.958;24.166;2023-07-31T10:07:18;24.80;80.80
54485;DHT22;45006;56.958;24.166;2023-07-31T10:09:46;24.80;80.70
54485;DHT22;45006;56.958;24.166;2023-07-31T10:12:15;24.80;80.40
54485;DHT22;45006;56.958;24.166;2023-07-31T10:14:44;24.80;80.40
54485;DHT22;45006;56.958;24.166;2023-07-31T10:17:11;24.70;80.80
54485;DHT22;45006;56.958;24.166;2023-07-31T10:19:40;24.80;80.70
54485;DHT22;45006;56.958;24.166;2023-07-31T10:22:09;24.80;80.90
54485;DHT22;45006;56.958;24.166;2023-07-31T10:24:40;24.70;80.90
54485;DHT22;45006;56.958;24.166;2023-07-31T10:27:11;24.70;80.90
54485;DHT22;45006;56.958;24.166;2023-07-31T10:29:43;24.70;80.90
54485;DHT22;45006;56.958;24.166;2023-07-31T10:32:15;24.70;80.90
54485;DHT22;45006;56.958;24.166;2023-07-31T10:34:43;24.70;80.90
54485;DHT22;45006;56.958;24.166;2023-07-31T10:40:03;24.80;80.90
54485;DHT22;45006;56.958;24.166;2023-07-31T10:42:34;24.80;80.90
54485;DHT22;45006;56.958;24.166;2023-07-31T10:45:10;24.80;80.80
54485;DHT22;45006;56.958;24.166;2023-07-31T10:47:43;24.80;80.80
54485;DHT22;45006;56.958;24.166;2023-07-31T10:50:20;24.80;80.70
54485;DHT22;45006;56.958;24.166;2023-07-31T10:52:52;24.80;80.90
54485;DHT22;45006;56.958;24.166;2023-07-31T10:55:31;24.80;81.00
54485;DHT22;45006;56.958;24.166;2023-07-31T10:58:13;24.70;80.90
54485;DHT22;45006;56.958;24.166;2023-07-31T11:00:42;24.70;80.80
54485;DHT22;45006;56.958;24.166;2023-07-31T11:03:17;24.70;80.80
54485;DHT22;45006;56.958;24.166;2023-07-31T11:06:00;24.80;80.80
54485;DHT22;45006;56.958;24.166;2023-07-31T11:08:34;24.80;80.80
54485;DHT22;45006;56.958;24.166;2023-07-31T11:13:29;24.80;80.80
54485;DHT22;45006;56.958;24.166;2023-07-31T11:15:56;24.80;80.70
54485;DHT22;45006;56.958;24.166;2023-07-31T11:18:24;24.80;80.80
54485;DHT22;45006;56.958;24.166;2023-07-31T11:20:51;24.80;80.80
54485;DHT22;45006;56.958;24.166;2023-07-31T11:23:18;24.80;80.80
54485;DHT22;45006;56.958;24.166;2023-07-31T11:25:46;24.80;80.70
54485;DHT22;45006;56.958;24.166;2023-07-31T11:28:15;24.80;80.70
54485;DHT22;45006;56.958;24.166;2023-07-31T11:30:43;24.80;80.80
54485;DHT22;45006;56.958;24.166;2023-07-31T11:33:11;24.80;80.70
54485;DHT22;45006;56.958;24.166;2023-07-31T11:35:44;24.80;80.70
54485;DHT22;45006;56.958;24.166;2023-07-31T11:38:26;24.80;80.70
54485;DHT22;45006;56.958;24.166;2023-07-31T11:40:54;24.80;80.60
54485;DHT22;45006;56.958;24.166;2023-07-31T11:43:23;24.80;80.60
54485;DHT22;45006;56.958;24.166;2023-07-31T11:45:55;24.80;80.60
54485;DHT22;45006;56.958;24.166;2023-07-31T11:48:27;24.90;80.60
54485;DHT22;45006;56.958;24.166;2023-07-31T11:50:58;24.80;80.60
54485;DHT22;45006;56.958;24.166;2023-07-31T11:53:50;24.90;80.60
54485;DHT22;45006;56.958;24.166;2023-07-31T11:56:18;24.80;80.60
54485;DHT22;45006;56.958;24.166;2023-07-31T11:58:47;24.80;80.60
54485;DHT22;45006;56.958;24.166;2023-07-31T12:01:18;24.80;80.60
54485;DHT22;45006;56.958;24.166;2023-07-31T12:03:48;24.80;80.60
54485;DHT22;45006;56.958;24.166;2023-07-31T12:06:18;24.90;80.70
54485;DHT22;45006;56.958;24.166;2023-07-31T12:08:48;24.90;80.70
54485;DHT22;45006;56.958;24.166;2023-07-31T12:11:15;24.90;80.60
54485;DHT22;45006;56.958;24.166;2023-07-31T12:13:44;24.90;80.60
54485;DHT22;45006;56.958;24.166;2023-07-31T12:16:11;24.90;80.70
54485;DHT22;45006;56.958;24.166;2023-07-31T12:18:39;24.90;80.70
54485;DHT22;45006;56.958;24.166;2023-07-31T12:21:09;24.90;80.70
54485;DHT22;45006;56.958;24.166;2023-07-31T12:23:38;24.90;81.30
54485;DHT22;45006;56.958;24.166;2023-07-31T12:26:13;24.90;81.00
54485;DHT22;45006;56.958;24.166;2023-07-31T12:28:47;24.90;80.70
54485;DHT22;45006;56.958;24.166;2023-07-31T12:31:19;24.90;80.60
54485;DHT22;45006;56.958;24.166;2023-07-31T12:33:49;24.90;80.60
54485;DHT22;45006;56.958;24.166;2023-07-31T12:36:23;24.90;80.70
54485;DHT22;45006;56.958;24.166;2023-07-31T12:38:52;24.90;80.60
54485;DHT22;45006;56.958;24.166;2023-07-31T12:41:19;24.90;80.50
54485;DHT22;45006;56.958;24.166;2023-07-31T12:43:46;24.90;80.60
54485;DHT22;45006;56.958;24.166;2023-07-31T12:46:13;24.90;80.60
54485;DHT22;45006;56.958;24.166;2023-07-31T12:48:41;25.00;80.70
54485;DHT22;45006;56.958;24.166;2023-07-31T12:51:08;24.90;80.70
54485;DHT22;45006;56.958;24.166;2023-07-31T12:53:37;24.90;80.70
54485;DHT22;45006;56.958;24.166;2023-07-31T12:56:04;24.90;80.80
54485;DHT22;45006;56.958;24.166;2023-07-31T12:58:31;24.90;80.80
54485;DHT22;45006;56.958;24.166;2023-07-31T13:00:58;24.90;80.80
54485;DHT22;45006;56.958;24.166;2023-07-31T13:03:25;24.90;80.80
54485;DHT22;45006;56.958;24.166;2023-07-31T13:05:52;24.90;80.40
54485;DHT22;45006;56.958;24.166;2023-07-31T13:08:19;25.00;80.40
54485;DHT22;45006;56.958;24.166;2023-07-31T13:10:46;25.00;80.10
54485;DHT22;45006;56.958;24.166;2023-07-31T13:13:13;25.00;80.00
54485;DHT22;45006;56.958;24.166;2023-07-31T13:15:41;25.00;80.00
54485;DHT22;45006;56.958;24.166;2023-07-31T13:18:09;25.00;79.90
54485;DHT22;45006;56.958;24.166;2023-07-31T13:20:37;25.00;79.90
54485;DHT22;45006;56.958;24.166;2023-07-31T13:23:05;25.00;79.90
54485;DHT22;45006;56.958;24.166;2023-07-31T13:25:32;25.00;79.90
54485;DHT22;45006;56.958;24.166;2023-07-31T13:27:59;25.00;79.90
54485;DHT22;45006;56.958;24.166;2023-07-31T13:30:29;25.00;79.90
54485;DHT22;45006;56.958;24.166;2023-07-31T13:32:56;25.10;80.00
54485;DHT22;45006;56.958;24.166;2023-07-31T13:35:23;25.00;79.90
54485;DHT22;45006;56.958;24.166;2023-07-31T13:37:50;25.00;80.00
54485;DHT22;45006;56.958;24.166;2023-07-31T13:40:17;25.00;80.00
54485;DHT22;45006;56.958;24.166;2023-07-31T13:42:44;25.10;80.00
54485;DHT22;45006;56.958;24.166;2023-07-31T13:45:11;25.00;80.00
54485;DHT22;45006;56.958;24.166;2023-07-31T13:47:38;25.10;80.00
54485;DHT22;45006;56.958;24.166;2023-07-31T13:50:06;25.00;80.00
54485;DHT22;45006;56.958;24.166;2023-07-31T13:52:33;25.00;80.00
54485;DHT22;45006;56.958;24.166;2023-07-31T13:55:00;25.10;80.10
54485;DHT22;45006;56.958;24.166;2023-07-31T13:57:28;25.00;80.10
54485;DHT22;45006;56.958;24.166;2023-07-31T13:59:56;25.00;80.10
54485;DHT22;45006;56.958;24.166;2023-07-31T14:02:27;25.00;80.10
54485;DHT22;45006;56.958;24.166;2023-07-31T14:04:54;25.00;80.10
54485;DHT22;45006;56.958;24.166;2023-07-31T14:07:21;25.00;80.00
54485;DHT22;45006;56.958;24.166;2023-07-31T14:09:49;25.00;80.10
54485;DHT22;45006;56.958;24.166;2023-07-31T14:12:17;24.90;80.20
54485;DHT22;45006;56.958;24.166;2023-07-31T14:15:04;24.90;80.20
54485;DHT22;45006;56.958;24.166;2023-07-31T14:17:31;25.00;80.30
54485;DHT22;45006;56.958;24.166;2023-07-31T14:19:58;25.00;80.30
54485;DHT22;45006;56.958;24.166;2023-07-31T14:22:29;24.90;80.30
54485;DHT22;45006;56.958;24.166;2023-07-31T14:24:56;24.90;80.40
54485;DHT22;45006;56.958;24.166;2023-07-31T14:27:24;24.90;80.40
54485;DHT22;45006;56.958;24.166;2023-07-31T14:29:52;24.90;80.40
54485;DHT22;45006;56.958;24.166;2023-07-31T14:32:22;24.90;80.40
54485;DHT22;45006;56.958;24.166;2023-07-31T14:34:50;24.90;80.40
54485;DHT22;45006;56.958;24.166;2023-07-31T14:37:17;24.90;80.50
54485;DHT22;45006;56.958;24.166;2023-07-31T14:39:45;24.90;80.50
54485;DHT22;45006;56.958;24.166;2023-07-31T14:42:12;24.90;80.60
54485;DHT22;45006;56.958;24.166;2023-07-31T14:44:39;24.90;80.60
54485;DHT22;45006;56.958;24.166;2023-07-31T14:47:06;24.90;80.60
54485;DHT22;45006;56.958;24.166;2023-07-31T14:49:33;24.90;80.70
54485;DHT22;45006;56.958;24.166;2023-07-31T14:52:00;24.90;80.70
54485;DHT22;45006;56.958;24.166;2023-07-31T14:54:27;24.90;80.70
54485;DHT22;45006;56.958;24.166;2023-07-31T14:56:54;24.90;80.80
54485;DHT22;45006;56.958;24.166;2023-07-31T14:59:21;24.90;80.80
54485;DHT22;45006;56.958;24.166;2023-07-31T15:01:48;24.90;80.80
54485;DHT22;45006;56.958;24.166;2023-07-31T15:04:15;24.90;80.80
54485;DHT22;45006;56.958;24.166;2023-07-31T15:06:42;24.90;80.80
54485;DHT22;45006;56.958;24.166;2023-07-31T15:09:09;24.90;80.80
54485;DHT22;45006;56.958;24.166;2023-07-31T15:11:36;24.90;80.80
54485;DHT22;45006;56.958;24.166;2023-07-31T15:14:03;24.90;80.80
54485;DHT22;45006;56.958;24.166;2023-07-31T15:16:30;24.90;80.80
54485;DHT22;45006;56.958;24.166;2023-07-31T15:18:58;24.90;80.80
54485;DHT22;45006;56.958;24.166;2023-07-31T15:21:25;24.90;81.30
54485;DHT22;45006;56.958;24.166;2023-07-31T15:23:52;24.90;80.80
54485;DHT22;45006;56.958;24.166;2023-07-31T15:26:19;24.90;80.70
54485;DHT22;45006;56.958;24.166;2023-07-31T15:29:01;24.90;80.70
54485;DHT22;45006;56.958;24.166;2023-07-31T15:31:29;24.90;80.50
54485;DHT22;45006;56.958;24.166;2023-07-31T15:33:56;24.90;80.40
54485;DHT22;45006;56.958;24.166;2023-07-31T15:36:23;24.90;80.40